Time;durP1;ratioP1;P1;durP2;ratioP2;P2;SDS_P1;SDS_P2;PMS_P1;PMS_P2;Temp;Humidity;BMP_temperature;BMP_pressure;BME280_temperature;BME280_humidity;BME280_pressure;Samples;Min_cycle;Max_cycle;Signal;HPM_P1;HPM_P2
2023/01/06 00:02:00;;;;;;;16.45;5.20;;;10.40;99.90;;;;;;5048412;28;20028;-47
2023/01/06 00:04:26;;;;;;;9.90;5.10;;;10.40;99.90;;;;;;5071454;28;20062;-51
2023/01/06 00:06:52;;;;;;;12.35;4.75;;;10.40;99.90;;;;;;5070505;28;20044;-47
2023/01/06 00:09:18;;;;;;;12.38;4.88;;;10.40;99.90;;;;;;5065108;28;20494;-47
2023/01/06 00:11:43;;;;;;;15.15;5.05;;;10.40;99.90;;;;;;5056113;28;20033;-47
2023/01/06 00:14:09;;;;;;;13.32;5.38;;;10.40;99.90;;;;;;5046531;28;20111;-48
2023/01/06 00:16:35;;;;;;;13.38;5.05;;;10.40;99.90;;;;;;5066434;28;20056;-48
2023/01/06 00:19:01;;;;;;;10.77;4.82;;;10.50;99.90;;;;;;5069211;28;20028;-46
2023/01/06 00:21:27;;;;;;;12.68;5.63;;;10.50;99.90;;;;;;5068947;28;20086;-47
2023/01/06 00:23:53;;;;;;;11.77;5.55;;;10.50;99.90;;;;;;5065912;28;20040;-45
2023/01/06 00:26:19;;;;;;;14.90;5.53;;;10.50;99.90;;;;;;5061923;28;20086;-50
2023/01/06 00:28:45;;;;;;;6.30;3.55;;;10.50;99.90;;;;;;5069067;28;20037;-55
2023/01/06 00:31:14;;;;;;;11.57;4.93;;;10.50;99.90;;;;;;5066086;28;20481;-51
2023/01/06 00:33:41;;;;;;;7.28;3.80;;;10.50;99.90;;;;;;5066921;28;20039;-41
2023/01/06 00:36:08;;;;;;;8.40;4.00;;;10.50;99.90;;;;;;5069161;28;20067;-47
2023/01/06 00:38:35;;;;;;;8.10;4.25;;;10.40;99.90;;;;;;5065892;28;20050;-48
2023/01/06 00:43:54;;;;;;;10.63;3.83;;;10.30;99.90;;;;;;5066548;28;20041;-47
2023/01/06 00:46:21;;;;;;;8.32;4.07;;;10.30;99.90;;;;;;5065175;28;20036;-50
2023/01/06 00:48:47;;;;;;;11.70;4.55;;;10.30;99.90;;;;;;5063202;28;20055;-43
2023/01/06 00:51:12;;;;;;;11.30;4.55;;;10.20;99.90;;;;;;5068870;28;20698;-50
2023/01/06 00:53:38;;;;;;;8.85;4.70;;;10.20;99.90;;;;;;5065497;28;20122;-51
2023/01/06 00:56:04;;;;;;;12.27;5.18;;;10.20;99.90;;;;;;5065443;28;20051;-46
2023/01/06 00:58:31;;;;;;;13.93;4.65;;;10.20;99.90;;;;;;5065372;28;20554;-49
2023/01/06 01:00:57;;;;;;;9.68;4.15;;;10.20;99.90;;;;;;5065655;28;20607;-39
2023/01/06 01:03:23;;;;;;;9.68;4.32;;;10.20;99.90;;;;;;5067812;28;20036;-41
2023/01/06 01:05:48;;;;;;;8.77;4.28;;;10.30;99.90;;;;;;5069566;28;20038;-54
2023/01/06 01:08:14;;;;;;;13.38;4.03;;;10.30;99.90;;;;;;5075015;28;20584;-42
2023/01/06 01:10:40;;;;;;;13.25;5.05;;;10.30;99.90;;;;;;5071104;28;20082;-50
2023/01/06 01:13:05;;;;;;;9.52;4.10;;;10.30;99.90;;;;;;5069614;28;20066;-43
2023/01/06 01:15:31;;;;;;;8.02;3.67;;;10.30;99.90;;;;;;5069365;28;20113;-44
2023/01/06 01:17:57;;;;;;;10.85;4.07;;;10.30;99.90;;;;;;5066691;28;20036;-42
2023/01/06 01:20:22;;;;;;;5.95;3.35;;;10.30;99.90;;;;;;5061415;28;20062;-49
2023/01/06 01:22:48;;;;;;;10.93;3.30;;;10.30;99.90;;;;;;5069584;28;20450;-50
2023/01/06 01:25:14;;;;;;;9.27;3.20;;;10.30;99.90;;;;;;5068165;28;20040;-49
2023/01/06 01:27:40;;;;;;;5.93;2.95;;;10.30;99.90;;;;;;5047277;28;20063;-47
2023/01/06 01:30:06;;;;;;;7.88;3.53;;;10.30;99.90;;;;;;5074353;28;20134;-49
2023/01/06 01:32:32;;;;;;;5.45;2.58;;;10.30;99.90;;;;;;5067117;28;20096;-43
2023/01/06 01:34:57;;;;;;;8.50;3.40;;;10.30;99.90;;;;;;5064276;28;20068;-47
2023/01/06 01:37:24;;;;;;;8.65;3.05;;;10.20;99.90;;;;;;5069064;28;20513;-40
2023/01/06 01:39:50;;;;;;;7.15;3.08;;;10.20;99.90;;;;;;5064287;28;20040;-50
2023/01/06 01:42:19;;;;;;;10.82;2.78;;;10.20;99.90;;;;;;5072462;28;20102;-47
2023/01/06 01:45:04;;;;;;;10.35;3.10;;;10.20;99.90;;;;;;5070550;28;20039;-50
2023/01/06 01:47:47;;;;;;;9.20;3.17;;;10.20;99.90;;;;;;5068597;28;20517;-49
2023/01/06 01:50:30;;;;;;;8.00;3.05;;;10.10;99.90;;;;;;5072934;28;20501;-48
2023/01/06 01:53:08;;;;;;;6.47;2.88;;;10.10;99.90;;;;;;5034121;28;20448;-41
2023/01/06 01:55:36;;;;;;;7.05;2.67;;;10.10;99.90;;;;;;5047870;28;20086;-43
2023/01/06 01:58:05;;;;;;;8.43;2.90;;;10.20;99.90;;;;;;5042112;28;20041;-46
2023/01/06 02:00:31;;;;;;;7.60;2.88;;;10.20;99.90;;;;;;5047369;28;20433;-49
2023/01/06 02:02:57;;;;;;;5.80;2.53;;;10.20;99.90;;;;;;5045273;28;20494;-47
2023/01/06 02:05:26;;;;;;;5.80;2.10;;;10.20;99.90;;;;;;5049031;28;20052;-41
2023/01/06 02:07:53;;;;;;;3.88;1.70;;;10.20;99.90;;;;;;5045711;28;20041;-50
2023/01/06 02:10:23;;;;;;;4.93;2.35;;;10.20;99.90;;;;;;5050981;28;20039;-51
2023/01/06 02:12:58;;;;;;;6.10;1.80;;;10.20;99.90;;;;;;5029987;28;20049;-50
2023/01/06 02:15:30;;;;;;;3.58;1.88;;;10.20;99.90;;;;;;5046630;28;20041;-47
2023/01/06 02:18:40;;;;;;;6.05;2.50;;;10.30;99.90;;;;;;5050189;28;20032;-50
2023/01/06 02:21:15;;;;;;;6.45;2.08;;;10.20;99.90;;;;;;5048155;28;20052;-50
2023/01/06 02:24:07;;;;;;;6.28;2.55;;;10.30;99.90;;;;;;5026668;28;20578;-49
2023/01/06 02:26:35;;;;;;;7.38;3.15;;;10.20;99.90;;;;;;5048131;28;20041;-41
2023/01/06 02:29:22;;;;;;;5.35;2.42;;;10.30;99.90;;;;;;5047948;28;20086;-41
2023/01/06 02:31:57;;;;;;;6.68;2.75;;;10.30;99.90;;;;;;5050578;28;20111;-48
2023/01/06 02:34:51;;;;;;;7.18;2.88;;;10.30;99.90;;;;;;5050636;28;20037;-44
2023/01/06 02:37:54;;;;;;;7.00;2.90;;;10.30;99.90;;;;;;5048211;28;20036;-50
2023/01/06 02:40:56;;;;;;;7.40;3.13;;;10.30;99.90;;;;;;5043230;28;20075;-51
2023/01/06 02:43:29;;;;;;;5.07;2.67;;;10.30;99.90;;;;;;5049595;28;20049;-50
2023/01/06 02:46:23;;;;;;;6.97;2.80;;;10.30;99.90;;;;;;5051503;28;20808;-47
2023/01/06 02:48:55;;;;;;;6.38;3.22;;;10.30;99.90;;;;;;5044733;28;20041;-46
2023/01/06 02:51:29;;;;;;;5.20;2.97;;;10.30;99.90;;;;;;5061740;28;20086;-49
2023/01/06 02:54:07;;;;;;;10.73;3.10;;;10.30;99.90;;;;;;5068427;28;20419;-47
2023/01/06 02:56:40;;;;;;;6.38;3.28;;;10.30;99.90;;;;;;5065038;28;20110;-45
2023/01/06 02:59:24;;;;;;;8.73;3.70;;;10.30;99.90;;;;;;5069240;28;20433;-49
2023/01/06 03:01:53;;;;;;;5.07;3.30;;;10.30;99.90;;;;;;5049102;28;20525;-51
2023/01/06 03:04:24;;;;;;;6.70;3.65;;;10.30;99.90;;;;;;5062612;28;20037;-50
2023/01/06 03:06:52;;;;;;;7.57;3.67;;;10.30;99.90;;;;;;5069490;28;20033;-44
2023/01/06 03:09:22;;;;;;;7.55;3.63;;;10.30;99.90;;;;;;5063330;28;20041;-47
2023/01/06 03:11:50;;;;;;;7.50;3.58;;;10.30;99.90;;;;;;5064745;28;20041;-42
2023/01/06 03:14:31;;;;;;;5.93;3.20;;;10.30;99.90;;;;;;5068244;28;20041;-48
2023/01/06 03:16:57;;;;;;;8.48;3.53;;;10.30;99.90;;;;;;5066595;28;20098;-44
2023/01/06 03:19:23;;;;;;;6.43;3.25;;;10.30;99.90;;;;;;5077047;28;20055;-44
2023/01/06 03:21:50;;;;;;;7.72;3.63;;;10.30;99.90;;;;;;5067324;28;20045;-51
2023/01/06 03:24:17;;;;;;;6.50;3.38;;;10.30;99.90;;;;;;5058680;28;20033;-49
2023/01/06 03:26:45;;;;;;;12.95;3.90;;;10.30;99.90;;;;;;5066238;28;20040;-51
2023/01/06 03:29:14;;;;;;;8.95;3.80;;;10.20;99.90;;;;;;5059027;28;20041;-51
2023/01/06 03:31:55;;;;;;;6.35;2.92;;;10.20;99.90;;;;;;5062724;28;20493;-47
2023/01/06 03:34:41;;;;;;;6.70;2.70;;;10.30;99.90;;;;;;5065845;28;20040;-51
2023/01/06 03:37:18;;;;;;;7.28;1.52;;;10.30;99.90;;;;;;5058950;28;20044;-49
2023/01/06 03:39:47;;;;;;;5.97;2.70;;;10.30;99.90;;;;;;5057715;28;20044;-45
2023/01/06 03:45:37;;;;;;;4.97;2.50;;;10.30;99.90;;;;;;5066057;28;20135;-47
2023/01/06 03:48:14;;;;;;;5.07;2.28;;;10.30;99.90;;;;;;5068860;28;20558;-47
2023/01/06 03:50:45;;;;;;;4.45;2.05;;;10.30;99.90;;;;;;5071244;28;20524;-43
2023/01/06 03:53:33;;;;;;;3.50;2.00;;;10.30;99.90;;;;;;5069260;28;20595;-50
2023/01/06 03:56:33;;;;;;;3.65;1.90;;;10.30;99.90;;;;;;5067554;28;20328;-49
2023/01/06 03:59:06;;;;;;;3.85;2.10;;;10.30;99.90;;;;;;4993422;28;20519;-43
2023/01/06 04:01:32;;;;;;;4.25;1.73;;;10.30;99.90;;;;;;5069443;28;20406;-49
2023/01/06 04:04:00;;;;;;;7.43;1.90;;;10.30;99.90;;;;;;5064326;28;20107;-49
2023/01/06 04:06:26;;;;;;;3.65;1.73;;;10.30;99.90;;;;;;5069182;28;20044;-50
2023/01/06 04:08:52;;;;;;;3.30;1.90;;;10.30;99.90;;;;;;5066119;28;20120;-43
2023/01/06 04:14:02;;;;;;;4.68;1.98;;;10.30;99.90;;;;;;5070229;28;20059;-50
2023/01/06 04:16:28;;;;;;;4.22;1.92;;;10.30;99.90;;;;;;5064221;28;20611;-50
2023/01/06 04:18:54;;;;;;;3.20;1.80;;;10.30;99.90;;;;;;5073426;28;20035;-43
2023/01/06 04:21:20;;;;;;;4.22;2.50;;;10.30;99.90;;;;;;5068826;28;20505;-48
2023/01/06 04:23:46;;;;;;;5.32;3.08;;;10.30;99.90;;;;;;5079535;28;20036;-44
2023/01/06 04:26:11;;;;;;;5.88;3.53;;;10.30;99.90;;;;;;5066347;28;20089;-49
2023/01/06 04:28:37;;;;;;;5.38;3.08;;;10.40;99.90;;;;;;5056940;28;20405;-44
2023/01/06 04:31:03;;;;;;;7.30;3.65;;;10.40;99.90;;;;;;5060656;28;20077;-49
2023/01/06 04:33:29;;;;;;;6.75;3.92;;;10.30;99.90;;;;;;5067249;28;20493;-44
2023/01/06 04:35:54;;;;;;;6.32;3.83;;;10.30;99.90;;;;;;5065405;28;20033;-45
2023/01/06 04:38:22;;;;;;;6.18;3.67;;;10.30;99.90;;;;;;5062998;28;20071;-48
2023/01/06 04:40:47;;;;;;;4.90;3.42;;;10.30;99.90;;;;;;5066459;28;20071;-50
2023/01/06 04:43:15;;;;;;;6.10;2.80;;;10.30;99.90;;;;;;5067163;28;20490;-48
2023/01/06 04:45:42;;;;;;;5.68;3.05;;;10.30;99.90;;;;;;5062851;28;20041;-50
2023/01/06 04:48:12;;;;;;;4.55;2.42;;;10.30;99.90;;;;;;5063169;28;20036;-45
2023/01/06 04:50:38;;;;;;;4.78;2.50;;;10.30;99.90;;;;;;5064079;28;20048;-50
2023/01/06 04:53:08;;;;;;;5.32;1.92;;;10.30;99.90;;;;;;5067450;28;20047;-43
2023/01/06 04:55:37;;;;;;;4.72;1.80;;;10.30;99.90;;;;;;5062692;28;20087;-51
2023/01/06 04:58:03;;;;;;;5.60;2.08;;;10.40;99.90;;;;;;5069248;28;20047;-49
2023/01/06 05:00:28;;;;;;;2.60;1.58;;;10.40;99.90;;;;;;5063031;28;20874;-48
2023/01/06 05:02:54;;;;;;;2.35;1.13;;;10.40;99.90;;;;;;5064553;28;20028;-43
2023/01/06 05:05:19;;;;;;;4.75;1.40;;;10.40;99.90;;;;;;5059737;28;20437;-48
2023/01/06 05:07:45;;;;;;;1.88;0.75;;;10.50;99.90;;;;;;5066241;28;20036;-38
2023/01/06 05:10:11;;;;;;;2.70;0.93;;;10.50;99.90;;;;;;5062896;28;20131;-46
2023/01/06 05:12:36;;;;;;;4.72;1.15;;;10.50;99.90;;;;;;5066280;28;20057;-43
2023/01/06 05:15:03;;;;;;;3.80;1.08;;;10.50;99.90;;;;;;5073178;28;20512;-47
2023/01/06 05:17:29;;;;;;;2.45;1.00;;;10.50;99.90;;;;;;5063906;28;20175;-44
2023/01/06 05:19:55;;;;;;;3.17;1.10;;;10.50;99.90;;;;;;5045295;28;20128;-48
2023/01/06 05:22:20;;;;;;;2.50;1.50;;;10.50;99.90;;;;;;5062744;28;20040;-50
2023/01/06 05:24:46;;;;;;;5.47;2.22;;;10.40;99.90;;;;;;5069005;28;20061;-49
2023/01/06 05:27:11;;;;;;;3.80;2.17;;;10.50;99.90;;;;;;5064199;28;20043;-50
2023/01/06 05:29:37;;;;;;;4.57;1.35;;;10.40;99.90;;;;;;5062685;28;20115;-45
2023/01/06 05:32:04;;;;;;;3.33;1.38;;;10.40;99.90;;;;;;5065042;28;20731;-42
2023/01/06 05:34:30;;;;;;;4.78;2.00;;;10.40;99.90;;;;;;5065914;28;20044;-48
2023/01/06 05:36:56;;;;;;;3.65;1.90;;;10.40;99.90;;;;;;5061773;28;20025;-49
2023/01/06 05:39:22;;;;;;;4.20;1.83;;;10.40;99.90;;;;;;5044626;28;20037;-46
2023/01/06 05:41:47;;;;;;;3.80;2.00;;;10.40;99.90;;;;;;5068463;28;20040;-40
2023/01/06 05:44:13;;;;;;;3.78;1.98;;;10.30;99.90;;;;;;5062515;28;20444;-50
2023/01/06 05:46:39;;;;;;;5.22;2.33;;;10.40;99.90;;;;;;5065862;28;20437;-47
2023/01/06 05:49:04;;;;;;;5.45;2.17;;;10.40;99.90;;;;;;5068846;28;21093;-47
2023/01/06 05:51:30;;;;;;;3.50;2.00;;;10.40;99.90;;;;;;5068966;28;20045;-49
2023/01/06 05:53:56;;;;;;;3.90;2.63;;;10.40;99.90;;;;;;5068365;28;20052;-43
2023/01/06 05:56:22;;;;;;;4.22;1.85;;;10.40;99.90;;;;;;5063551;28;20051;-43
2023/01/06 05:58:51;;;;;;;4.72;2.03;;;10.30;99.90;;;;;;5070947;28;20421;-48
2023/01/06 06:01:25;;;;;;;4.05;2.60;;;10.40;99.90;;;;;;5068077;28;20136;-51
2023/01/06 06:03:52;;;;;;;5.82;1.98;;;10.40;99.90;;;;;;5065153;28;20037;-49
2023/01/06 06:06:19;;;;;;;5.88;2.55;;;10.40;99.90;;;;;;5065110;28;20413;-50
2023/01/06 06:08:44;;;;;;;5.65;2.55;;;10.40;99.90;;;;;;5050093;28;20050;-46
2023/01/06 06:11:12;;;;;;;4.30;2.22;;;10.40;99.90;;;;;;5066127;28;20040;-46
2023/01/06 06:13:43;;;;;;;4.47;2.30;;;10.30;99.90;;;;;;5065990;28;20128;-48
2023/01/06 06:16:11;;;;;;;5.43;2.15;;;10.30;99.90;;;;;;5064295;28;20063;-50
2023/01/06 06:18:41;;;;;;;3.78;2.38;;;10.30;99.90;;;;;;5073706;28;20055;-48
2023/01/06 06:21:08;;;;;;;4.25;2.88;;;10.20;99.90;;;;;;5068643;28;20533;-44
2023/01/06 06:23:34;;;;;;;3.17;2.22;;;10.20;99.90;;;;;;5052614;28;20032;-44
2023/01/06 06:25:59;;;;;;;2.80;1.73;;;10.20;99.90;;;;;;5069053;28;20413;-50
2023/01/06 06:28:25;;;;;;;6.22;2.80;;;10.10;99.90;;;;;;5068614;28;20028;-49
2023/01/06 06:30:51;;;;;;;4.13;2.53;;;10.10;99.90;;;;;;5069587;28;20449;-48
2023/01/06 06:33:16;;;;;;;4.10;2.10;;;10.10;99.90;;;;;;5071694;28;20045;-48
2023/01/06 06:35:42;;;;;;;5.25;2.60;;;10.00;99.90;;;;;;5071073;28;20046;-45
2023/01/06 06:38:08;;;;;;;4.70;2.72;;;10.00;99.90;;;;;;5064833;28;20032;-49
2023/01/06 06:40:33;;;;;;;5.00;2.92;;;10.00;99.90;;;;;;5063502;28;20040;-41
2023/01/06 06:42:59;;;;;;;5.82;3.00;;;9.90;99.90;;;;;;5054787;28;20039;-47
2023/01/06 06:45:25;;;;;;;5.47;3.00;;;9.90;99.90;;;;;;5063718;28;20052;-50
2023/01/06 06:47:54;;;;;;;5.32;3.45;;;9.90;99.90;;;;;;5045211;28;20044;-43
2023/01/06 06:50:20;;;;;;;8.60;3.30;;;9.90;99.90;;;;;;5066077;28;20048;-50
2023/01/06 06:52:45;;;;;;;5.97;2.97;;;9.90;99.90;;;;;;5068095;28;20067;-48
2023/01/06 06:55:11;;;;;;;5.63;3.35;;;9.90;99.90;;;;;;5060734;28;20401;-43
2023/01/06 06:57:37;;;;;;;4.40;2.72;;;9.90;99.90;;;;;;5066035;28;20093;-44
2023/01/06 07:00:03;;;;;;;5.28;2.97;;;9.90;99.90;;;;;;5061390;28;20128;-44
2023/01/06 07:02:29;;;;;;;6.93;2.92;;;9.90;99.90;;;;;;5057577;28;20024;-49
2023/01/06 07:04:55;;;;;;;5.45;3.13;;;9.90;99.90;;;;;;5066820;28;20032;-50
2023/01/06 07:07:21;;;;;;;3.88;2.13;;;9.90;99.90;;;;;;5067469;28;20037;-47
2023/01/06 07:09:47;;;;;;;5.30;2.65;;;9.90;99.90;;;;;;5070721;28;20081;-53
2023/01/06 07:12:12;;;;;;;4.43;2.58;;;9.90;99.90;;;;;;5065884;28;20090;-49
2023/01/06 07:14:38;;;;;;;5.68;3.38;;;9.90;99.90;;;;;;5076026;28;20520;-50
2023/01/06 07:17:04;;;;;;;4.45;2.25;;;9.90;99.90;;;;;;5068917;28;20033;-50
2023/01/06 07:19:29;;;;;;;6.13;3.15;;;9.90;99.90;;;;;;5070766;28;20119;-51
2023/01/06 07:21:55;;;;;;;4.38;3.08;;;9.90;99.90;;;;;;5052861;28;20040;-50
2023/01/06 07:24:22;;;;;;;5.68;3.05;;;9.90;99.90;;;;;;5068552;28;20044;-47
2023/01/06 07:26:47;;;;;;;4.75;2.50;;;9.90;99.90;;;;;;5066856;28;20374;-50
2023/01/06 07:29:13;;;;;;;4.95;2.70;;;10.00;99.90;;;;;;5068057;28;20503;-52
2023/01/06 07:31:39;;;;;;;4.07;2.20;;;9.90;99.90;;;;;;5052962;28;20052;-48
2023/01/06 07:34:05;;;;;;;4.18;2.22;;;9.90;99.90;;;;;;5066126;28;20532;-51
2023/01/06 07:36:30;;;;;;;4.18;2.30;;;9.90;99.90;;;;;;5065502;28;20118;-43
2023/01/06 07:38:56;;;;;;;6.40;2.53;;;9.90;99.90;;;;;;5062639;28;20043;-51
2023/01/06 07:41:22;;;;;;;3.83;1.92;;;9.90;99.90;;;;;;5072999;28;20045;-47
2023/01/06 07:43:47;;;;;;;2.45;1.50;;;9.90;99.90;;;;;;5074635;28;20047;-51
2023/01/06 07:46:13;;;;;;;3.08;1.20;;;9.90;99.90;;;;;;5073693;28;20032;-49
2023/01/06 07:48:39;;;;;;;3.53;1.08;;;10.00;99.90;;;;;;5065318;28;20035;-52
2023/01/06 07:51:05;;;;;;;1.55;0.80;;;10.00;99.90;;;;;;5053756;28;20056;-52
2023/01/06 07:53:31;;;;;;;3.63;2.10;;;10.00;99.90;;;;;;5063611;28;20572;-49
2023/01/06 07:55:57;;;;;;;3.88;1.00;;;10.00;99.90;;;;;;5068824;28;20043;-48
2023/01/06 07:58:23;;;;;;;2.83;0.77;;;10.00;99.90;;;;;;5071459;28;20055;-51
2023/01/06 08:00:49;;;;;;;2.47;0.70;;;10.00;99.90;;;;;;5062222;28;20068;-50
2023/01/06 08:03:14;;;;;;;3.05;0.82;;;10.00;99.90;;;;;;5064479;28;20039;-50
2023/01/06 08:05:41;;;;;;;2.35;0.70;;;9.90;99.90;;;;;;5069867;28;20439;-43
2023/01/06 08:08:08;;;;;;;3.75;0.80;;;9.90;99.90;;;;;;5065737;28;20040;-47
2023/01/06 08:10:34;;;;;;;6.13;1.00;;;9.90;99.90;;;;;;5072028;28;20044;-43
2023/01/06 08:12:59;;;;;;;2.13;0.38;;;9.80;99.90;;;;;;5050436;28;20040;-50
2023/01/06 08:15:25;;;;;;;1.40;0.50;;;9.80;99.90;;;;;;5058418;28;20137;-42
2023/01/06 08:17:52;;;;;;;6.55;0.70;;;9.70;99.90;;;;;;5060763;28;20036;-51
2023/01/06 08:20:18;;;;;;;4.25;0.90;;;9.70;99.90;;;;;;5066095;28;20124;-44
2023/01/06 08:22:44;;;;;;;6.43;0.73;;;9.60;99.90;;;;;;5062391;28;20032;-48
2023/01/06 08:25:10;;;;;;;4.65;0.63;;;9.50;99.90;;;;;;5067947;28;20394;-48
2023/01/06 08:27:36;;;;;;;6.65;0.88;;;9.40;99.90;;;;;;5065300;28;20494;-45
2023/01/06 08:30:01;;;;;;;2.70;0.50;;;9.30;99.90;;;;;;5069728;28;20032;-51
2023/01/06 08:32:27;;;;;;;3.83;0.90;;;9.30;99.90;;;;;;5063976;28;20052;-48
2023/01/06 08:34:53;;;;;;;5.93;0.95;;;9.20;99.90;;;;;;5067219;28;20046;-49
2023/01/06 08:37:18;;;;;;;5.65;0.50;;;9.20;99.90;;;;;;5046558;28;20037;-43
2023/01/06 08:39:45;;;;;;;7.75;0.77;;;9.20;99.90;;;;;;5063119;28;20121;-50
2023/01/06 08:42:11;;;;;;;4.78;0.65;;;9.10;99.90;;;;;;5066982;28;20121;-51
2023/01/06 08:44:36;;;;;;;6.90;0.60;;;9.10;99.90;;;;;;5068001;28;20051;-50
2023/01/06 08:47:02;;;;;;;7.30;0.77;;;9.10;99.90;;;;;;5056770;28;20107;-49
2023/01/06 08:49:28;;;;;;;4.97;0.50;;;9.00;99.90;;;;;;5070770;28;20033;-50
2023/01/06 08:51:54;;;;;;;6.90;0.70;;;9.00;99.90;;;;;;5069196;28;20414;-46
2023/01/06 08:54:19;;;;;;;5.35;0.43;;;9.00;99.90;;;;;;5071426;28;20051;-50
2023/01/06 08:56:45;;;;;;;3.95;0.40;;;9.00;99.90;;;;;;5069873;28;20502;-50
2023/01/06 08:59:13;;;;;;;5.88;0.80;;;8.90;99.90;;;;;;5070701;28;20095;-44
2023/01/06 09:01:39;;;;;;;5.78;1.05;;;8.90;99.90;;;;;;5072791;28;20051;-38
2023/01/06 09:04:07;;;;;;;3.85;0.50;;;8.90;99.90;;;;;;5065885;28;20029;-37
2023/01/06 09:06:34;;;;;;;4.57;0.60;;;8.90;99.90;;;;;;5068295;28;20494;-38
2023/01/06 09:09:01;;;;;;;5.00;0.52;;;8.90;99.90;;;;;;5060765;28;20032;-37
2023/01/06 09:11:27;;;;;;;6.57;1.08;;;8.90;99.90;;;;;;5065659;28;20132;-39
2023/01/06 09:13:53;;;;;;;9.93;0.70;;;8.90;99.90;;;;;;5068671;28;20490;-38
2023/01/06 09:16:19;;;;;;;6.95;0.43;;;8.90;99.90;;;;;;5069260;28;20036;-38
2023/01/06 09:18:49;;;;;;;4.22;0.63;;;8.90;99.90;;;;;;5070778;28;20059;-37
2023/01/06 09:21:16;;;;;;;5.68;0.50;;;8.90;99.90;;;;;;5073462;28;20040;-49
2023/01/06 09:23:42;;;;;;;3.00;0.50;;;8.90;99.90;;;;;;5068773;28;20048;-51
2023/01/06 09:26:09;;;;;;;19.88;2.53;;;8.90;99.90;;;;;;5071043;28;20037;-50
2023/01/06 09:28:34;;;;;;;4.72;0.63;;;9.00;99.90;;;;;;5076385;28;20497;-40
2023/01/06 09:31:00;;;;;;;6.32;0.73;;;9.00;99.90;;;;;;5068164;28;20123;-37
2023/01/06 09:33:26;;;;;;;8.20;0.80;;;9.00;99.90;;;;;;5072130;28;20040;-37
2023/01/06 09:35:51;;;;;;;4.30;0.47;;;9.00;99.90;;;;;;5076737;28;20066;-37
2023/01/06 09:38:17;;;;;;;2.97;0.43;;;9.10;99.90;;;;;;5065582;28;20175;-38
2023/01/06 09:41:04;;;;;;;7.45;1.67;;;9.10;99.90;;;;;;5069074;28;20059;-44
2023/01/06 09:43:49;;;;;;;5.53;0.47;;;9.10;99.90;;;;;;5068703;28;20063;-44
2023/01/06 09:46:25;;;;;;;5.95;0.60;;;9.10;99.90;;;;;;5073414;28;20028;-45
2023/01/06 09:49:24;;;;;;;3.72;0.40;;;9.20;99.90;;;;;;5074702;28;20107;-44
2023/01/06 09:52:01;;;;;;;4.97;0.55;;;9.20;99.90;;;;;;5056510;28;20138;-44
2023/01/06 09:54:39;;;;;;;26.10;1.95;;;9.30;99.90;;;;;;5054478;28;20497;-44
2023/01/06 09:57:44;;;;;;;6.13;0.60;;;9.30;99.90;;;;;;5058125;28;20116;-43
2023/01/06 10:00:42;;;;;;;4.15;0.50;;;9.30;99.90;;;;;;5066239;28;20506;-47
2023/01/06 10:03:20;;;;;;;6.95;0.70;;;9.30;99.90;;;;;;5064226;28;20033;-42
2023/01/06 10:06:05;;;;;;;4.00;0.75;;;9.40;99.90;;;;;;5082742;28;20494;-46
2023/01/06 10:08:57;;;;;;;4.95;0.50;;;9.40;99.90;;;;;;5064372;28;20070;-45
2023/01/06 10:11:35;;;;;;;4.05;0.50;;;9.40;99.90;;;;;;5050160;28;20527;-45
2023/01/06 10:14:45;;;;;;;6.05;0.70;;;9.50;99.90;;;;;;5070437;28;20119;-46
2023/01/06 10:17:30;;;;;;;7.68;0.70;;;9.50;99.90;;;;;;5071435;28;20040;-46
2023/01/06 10:19:57;;;;;;;6.00;0.50;;;9.60;99.90;;;;;;5074663;28;20051;-47
2023/01/06 10:22:34;;;;;;;8.10;0.40;;;9.60;99.90;;;;;;5073985;28;20528;-44
2023/01/06 10:25:03;;;;;;;5.13;0.68;;;9.60;99.90;;;;;;5083123;28;20036;-43
2023/01/06 10:27:35;;;;;;;3.67;0.60;;;9.70;99.90;;;;;;5071124;28;20036;-46
2023/01/06 10:30:04;;;;;;;4.03;0.50;;;9.70;99.90;;;;;;5075502;28;20036;-44
2023/01/06 10:32:33;;;;;;;4.68;0.68;;;9.70;99.90;;;;;;5072118;28;20052;-47
2023/01/06 10:35:00;;;;;;;4.70;0.93;;;9.80;99.90;;;;;;5071669;28;20141;-46
2023/01/06 10:37:38;;;;;;;5.55;0.75;;;9.80;99.90;;;;;;5073033;28;20051;-40
2023/01/06 10:40:20;;;;;;;2.35;0.40;;;9.90;99.90;;;;;;5061822;28;20503;-46
2023/01/06 10:42:55;;;;;;;6.80;0.82;;;9.90;99.90;;;;;;5050063;28;20380;-45
2023/01/06 10:45:39;;;;;;;5.75;0.95;;;9.90;99.90;;;;;;5061741;28;20033;-45
2023/01/06 10:48:09;;;;;;;7.50;0.50;;;10.00;99.90;;;;;;5063689;28;20115;-43
2023/01/06 10:50:36;;;;;;;6.05;0.52;;;10.10;99.90;;;;;;5071561;28;20647;-48
2023/01/06 10:53:03;;;;;;;3.15;0.55;;;10.20;99.90;;;;;;5080177;28;20101;-43
2023/01/06 10:55:45;;;;;;;3.80;0.47;;;10.50;99.90;;;;;;5070609;28;20075;-44
2023/01/06 10:58:32;;;;;;;7.32;0.45;;;10.70;99.90;;;;;;5051049;28;20085;-47
2023/01/06 11:01:07;;;;;;;3.47;0.50;;;10.90;99.90;;;;;;5068475;28;20051;-45
2023/01/06 11:03:34;;;;;;;3.35;0.50;;;11.20;99.90;;;;;;5068675;28;20452;-44
2023/01/06 11:06:25;;;;;;;6.93;0.50;;;11.50;99.90;;;;;;5068475;28;20040;-45
2023/01/06 11:08:51;;;;;;;5.80;0.65;;;11.60;99.90;;;;;;5054034;28;20052;-47
2023/01/06 11:11:18;;;;;;;3.78;0.32;;;11.70;99.90;;;;;;5065753;28;20036;-46
2023/01/06 11:13:50;;;;;;;4.82;0.30;;;11.80;99.90;;;;;;5067504;28;20072;-42
2023/01/06 11:16:32;;;;;;;3.17;0.30;;;11.90;99.90;;;;;;5070982;28;20101;-45
2023/01/06 11:19:07;;;;;;;5.32;0.68;;;11.70;99.90;;;;;;5052932;28;20072;-41
2023/01/06 11:21:42;;;;;;;2.83;0.30;;;11.80;99.90;;;;;;5062726;28;20051;-44
2023/01/06 11:24:22;;;;;;;5.50;0.30;;;11.90;99.90;;;;;;5068224;28;20040;-44
2023/01/06 11:27:13;;;;;;;4.22;0.40;;;11.80;99.90;;;;;;5071523;28;20489;-44
2023/01/06 11:29:39;;;;;;;2.70;0.50;;;11.70;99.90;;;;;;5050086;28;20093;-42
2023/01/06 11:32:27;;;;;;;3.10;0.30;;;11.80;99.90;;;;;;5063781;28;20036;-45
2023/01/06 11:35:05;;;;;;;1.38;0.28;;;11.90;99.90;;;;;;5061806;28;20068;-42
2023/01/06 11:37:40;;;;;;;3.53;0.68;;;11.90;99.90;;;;;;5068355;28;20063;-42
2023/01/06 11:40:16;;;;;;;2.78;0.30;;;12.20;99.90;;;;;;5066860;28;20097;-45
2023/01/06 11:42:43;;;;;;;4.72;0.60;;;12.50;99.90;;;;;;5062581;28;20037;-43
2023/01/06 11:45:30;;;;;;;7.85;0.50;;;12.50;99.90;;;;;;5059730;28;20037;-44
2023/01/06 11:47:56;;;;;;;3.25;0.50;;;12.30;99.90;;;;;;5068227;28;20037;-44
2023/01/06 11:50:22;;;;;;;4.22;0.40;;;12.10;99.90;;;;;;5062155;28;20036;-44
2023/01/06 11:52:59;;;;;;;6.13;0.90;;;12.20;99.90;;;;;;5050681;28;20067;-43
2023/01/06 11:55:26;;;;;;;7.53;0.60;;;12.30;99.90;;;;;;5062282;28;20051;-44
2023/01/06 11:58:02;;;;;;;5.63;0.98;;;12.30;99.90;;;;;;5064432;28;20457;-47
2023/01/06 12:00:44;;;;;;;4.47;0.47;;;12.30;99.90;;;;;;5060510;28;20067;-44
2023/01/06 12:03:09;;;;;;;3.80;0.60;;;12.20;99.90;;;;;;5067096;28;20489;-46
2023/01/06 12:05:45;;;;;;;4.30;0.40;;;12.20;99.90;;;;;;5066918;28;20144;-47
2023/01/06 12:08:17;;;;;;;5.80;0.60;;;11.90;99.90;;;;;;5055915;28;20543;-47
2023/01/06 12:10:47;;;;;;;4.97;0.40;;;11.70;99.90;;;;;;5059361;28;20088;-43
2023/01/06 12:13:13;;;;;;;2.35;0.35;;;11.50;99.90;;;;;;5063221;28;20067;-45
2023/01/06 12:15:43;;;;;;;5.25;0.95;;;11.40;99.90;;;;;;5046277;28;20141;-48
2023/01/06 12:18:18;;;;;;;5.30;0.60;;;11.40;99.90;;;;;;5065147;28;20042;-46
2023/01/06 12:20:48;;;;;;;10.95;0.85;;;11.30;99.90;;;;;;5066900;28;20175;-46
2023/01/06 12:23:17;;;;;;;5.95;0.60;;;11.30;99.90;;;;;;5062790;28;20486;-43
2023/01/06 12:25:46;;;;;;;4.35;0.70;;;11.20;99.90;;;;;;5067112;28;20536;-42
2023/01/06 12:28:14;;;;;;;4.95;0.30;;;11.20;99.90;;;;;;5061984;28;20130;-40
2023/01/06 12:30:45;;;;;;;6.93;0.65;;;11.10;99.90;;;;;;5047270;28;20036;-46
2023/01/06 12:33:20;;;;;;;4.05;0.40;;;11.10;99.90;;;;;;5059997;28;20036;-43
2023/01/06 12:35:48;;;;;;;5.65;1.13;;;11.10;99.90;;;;;;5042936;28;20052;-48
2023/01/06 12:38:29;;;;;;;7.50;0.73;;;11.00;99.90;;;;;;5062405;28;20051;-41
2023/01/06 12:41:12;;;;;;;4.25;0.40;;;10.90;99.90;;;;;;5039432;28;20048;-48
2023/01/06 12:43:42;;;;;;;2.70;0.30;;;10.90;99.90;;;;;;5068820;28;20052;-44
2023/01/06 12:46:16;;;;;;;5.68;0.50;;;10.80;99.90;;;;;;5064492;28;20037;-49
2023/01/06 12:49:09;;;;;;;6.18;1.30;;;10.80;99.90;;;;;;5061719;28;20040;-44
2023/01/06 12:51:43;;;;;;;5.60;0.70;;;10.70;99.90;;;;;;5066714;28;20094;-45
2023/01/06 12:54:27;;;;;;;4.22;0.45;;;10.60;99.90;;;;;;5062157;28;20189;-44
2023/01/06 12:57:23;;;;;;;4.13;0.40;;;10.50;99.90;;;;;;5063848;28;20037;-42
2023/01/06 13:00:02;;;;;;;5.63;0.45;;;10.50;99.90;;;;;;5063885;28;20048;-45
2023/01/06 13:02:40;;;;;;;4.50;0.50;;;10.50;99.90;;;;;;5067323;28;20059;-45
2023/01/06 13:05:36;;;;;;;6.35;0.70;;;10.40;99.90;;;;;;5069535;28;20090;-45
2023/01/06 13:08:24;;;;;;;2.97;0.40;;;10.40;99.90;;;;;;5067612;28;20074;-43
2023/01/06 13:11:08;;;;;;;5.15;0.45;;;10.30;99.90;;;;;;5066113;28;20110;-42
2023/01/06 13:13:48;;;;;;;4.43;0.68;;;10.20;99.90;;;;;;5047611;28;20048;-43
2023/01/06 13:16:24;;;;;;;6.63;0.73;;;10.20;99.90;;;;;;5064562;28;20064;-43